Time;durP1;ratioP1;P1;durP2;ratioP2;P2;SDS_P1;SDS_P2;PMS_P1;PMS_P2;Temp;Humidity;BMP_temperature;BMP_pressure;BME280_temperature;BME280_humidity;BME280_pressure;Samples;Min_cycle;Max_cycle;Signal;HPM_P1;HPM_P2
2022/09/19 00:00:55;;;;;;;13.95;9.90;;;;;;;;;;5054467;28;20175;-60
2022/09/19 00:03:21;;;;;;;13.80;9.63;;;;;;;;;;5054328;28;20021;-61
2022/09/19 00:05:47;;;;;;;13.82;9.60;;;;;;;;;;5053952;28;20397;-59
2022/09/19 00:08:13;;;;;;;13.80;9.48;;;;;;;;;;5052345;28;20040;-59
2022/09/19 00:10:41;;;;;;;14.05;10.00;;;;;;;;;;5054419;28;20115;-61
2022/09/19 00:13:07;;;;;;;14.80;10.43;;;;;;;;;;5054430;28;20115;-61
2022/09/19 00:15:36;;;;;;;14.40;10.57;;;;;;;;;;5054191;28;20052;-63
2022/09/19 00:18:03;;;;;;;13.75;9.25;;;;;;;;;;5053154;28;20524;-61
2022/09/19 00:20:30;;;;;;;13.77;9.50;;;;;;;;;;5053973;28;20397;-61
2022/09/19 00:25:41;;;;;;;13.70;9.20;;;;;;;;;;5054073;28;20040;-62
2022/09/19 00:28:07;;;;;;;13.70;9.30;;;;;;;;;;5053127;28;20025;-61
2022/09/19 00:30:37;;;;;;;13.52;9.13;;;;;;;;;;5054235;28;20477;-60
2022/09/19 00:33:03;;;;;;;13.95;9.93;;;;;;;;;;5052312;28;20021;-62
2022/09/19 00:35:32;;;;;;;13.85;9.57;;;;;;;;;;5053674;28;20037;-62
2022/09/19 00:37:58;;;;;;;14.20;10.75;;;;;;;;;;5053361;28;20462;-60
2022/09/19 00:40:24;;;;;;;13.82;9.55;;;;;;;;;;5053360;28;20036;-61
2022/09/19 00:42:50;;;;;;;14.00;10.05;;;;;;;;;;5053629;28;20013;-62
2022/09/19 00:45:17;;;;;;;13.93;9.77;;;;;;;;;;5053391;28;20021;-62
2022/09/19 00:47:50;;;;;;;14.35;10.00;;;;;;;;;;5052780;28;20025;-60
2022/09/19 00:50:24;;;;;;;13.90;9.80;;;;;;;;;;5053412;28;20068;-59
2022/09/19 00:52:53;;;;;;;13.88;9.60;;;;;;;;;;5053596;28;20028;-64
2022/09/19 00:55:19;;;;;;;13.90;9.73;;;;;;;;;;5052418;28;20102;-60
2022/09/19 00:57:51;;;;;;;13.88;9.82;;;;;;;;;;5051373;28;20021;-61
2022/09/19 01:00:17;;;;;;;14.00;10.00;;;;;;;;;;5052442;28;20404;-62
2022/09/19 01:02:46;;;;;;;14.23;9.88;;;;;;;;;;5053264;28;20112;-61
2022/09/19 01:05:12;;;;;;;;;;;;;;;;;;5053313;28;20439;-61
2022/09/19 01:07:42;;;;;;;20.55;12.23;;;;;;;;;;5052233;28;19905;-60
2022/09/19 01:10:14;;;;;;;21.98;12.10;;;;;;;;;;5053228;28;20020;-60
2022/09/19 01:12:46;;;;;;;25.25;12.77;;;;;;;;;;5052083;28;20436;-61
2022/09/19 01:15:28;;;;;;;22.92;12.50;;;;;;;;;;5053334;28;20025;-62
2022/09/19 01:17:57;;;;;;;22.13;12.50;;;;;;;;;;5052539;28;20029;-61
2022/09/19 01:20:23;;;;;;;21.33;13.02;;;;;;;;;;5052782;28;20036;-62
2022/09/19 01:23:02;;;;;;;30.20;13.65;;;;;;;;;;5052790;28;20497;-62
2022/09/19 01:25:47;;;;;;;23.25;12.57;;;;;;;;;;5052501;28;20021;-64
2022/09/19 01:28:32;;;;;;;22.63;13.48;;;;;;;;;;5051971;28;20492;-62
2022/09/19 01:31:21;;;;;;;26.17;12.95;;;;;;;;;;5052592;28;20021;-61
2022/09/19 01:34:02;;;;;;;30.77;13.63;;;;;;;;;;5052626;28;20509;-60
2022/09/19 01:36:31;;;;;;;22.83;13.85;;;;;;;;;;5052320;28;20060;-60
2022/09/19 01:38:57;;;;;;;;;;;;;;;;;;5052352;28;20036;-60
2022/09/19 01:41:23;;;;;;;24.35;13.32;;;;;;;;;;5052466;28;19938;-62
2022/09/19 01:43:50;;;;;;;22.88;12.40;;;;;;;;;;5052586;28;20032;-62
2022/09/19 01:46:39;;;;;;;24.40;13.15;;;;;;;;;;5051825;28;20108;-60
2022/09/19 01:49:08;;;;;;;28.73;12.98;;;;;;;;;;5043532;28;20127;-62
2022/09/19 01:51:38;;;;;;;30.60;15.02;;;;;;;;;;5052439;28;20371;-61
2022/09/19 01:54:04;;;;;;;25.05;14.10;;;;;;;;;;5052148;28;20029;-61
2022/09/19 01:56:39;;;;;;;28.08;13.70;;;;;;;;;;5052367;28;20075;-62
2022/09/19 01:59:24;;;;;;;24.42;12.85;;;;;;;;;;5051693;28;20091;-61
2022/09/19 02:01:55;;;;;;;22.40;13.85;;;;;;;;;;5050997;28;20033;-61
2022/09/19 02:04:24;;;;;;;19.73;13.18;;;;;;;;;;5052188;28;20112;-60
2022/09/19 02:06:58;;;;;;;31.70;13.45;;;;;;;;;;5052264;28;20397;-62
2022/09/19 02:09:27;;;;;;;25.67;14.23;;;;;;;;;;5049772;28;20036;-61
2022/09/19 02:11:55;;;;;;;24.02;12.70;;;;;;;;;;5052265;28;20170;-62
2022/09/19 02:14:22;;;;;;;25.33;13.15;;;;;;;;;;5052290;28;20056;-61
2022/09/19 02:17:03;;;;;;;23.35;12.20;;;;;;;;;;5051951;28;20021;-60
2022/09/19 02:19:32;;;;;;;22.52;13.65;;;;;;;;;;5051521;28;20108;-61
2022/09/19 02:22:11;;;;;;;26.35;12.43;;;;;;;;;;5052039;28;20017;-59
2022/09/19 02:24:40;;;;;;;23.80;13.25;;;;;;;;;;5052217;28;20064;-61
2022/09/19 02:27:27;;;;;;;22.30;12.82;;;;;;;;;;5050530;28;20032;-62
2022/09/19 02:29:56;;;;;;;22.80;13.27;;;;;;;;;;5052216;28;20441;-61
2022/09/19 02:32:24;;;;;;;19.80;12.68;;;;;;;;;;5050830;28;20618;-62
2022/09/19 02:34:52;;;;;;;25.05;13.45;;;;;;;;;;5050770;28;20123;-61
2022/09/19 02:37:21;;;;;;;23.35;12.70;;;;;;;;;;5049970;28;20244;-61
2022/09/19 02:39:48;;;;;;;22.20;13.85;;;;;;;;;;5051656;28;20044;-60
2022/09/19 02:42:30;;;;;;;25.98;15.02;;;;;;;;;;5050692;28;20036;-61
2022/09/19 02:45:10;;;;;;;27.45;14.43;;;;;;;;;;5051799;28;20032;-61
2022/09/19 02:47:37;;;;;;;25.33;13.48;;;;;;;;;;5050258;28;20029;-62
2022/09/19 02:50:06;;;;;;;25.75;13.93;;;;;;;;;;5052339;28;20025;-61
2022/09/19 02:52:33;;;;;;;28.20;13.25;;;;;;;;;;5053669;28;20053;-59
2022/09/19 02:55:03;;;;;;;18.58;12.57;;;;;;;;;;5052188;28;20503;-62
2022/09/19 02:57:30;;;;;;;23.75;13.00;;;;;;;;;;5055877;28;20025;-62
2022/09/19 02:59:58;;;;;;;25.70;14.02;;;;;;;;;;5055097;28;20176;-61
2022/09/19 03:02:31;;;;;;;23.13;14.45;;;;;;;;;;5056573;28;20025;-61
2022/09/19 03:05:00;;;;;;;23.17;14.52;;;;;;;;;;5056356;28;20025;-62
2022/09/19 03:07:28;;;;;;;26.17;14.65;;;;;;;;;;5055399;28;20385;-60
2022/09/19 03:10:01;;;;;;;26.70;15.25;;;;;;;;;;5056275;28;20033;-60
2022/09/19 03:12:27;;;;;;;25.42;14.70;;;;;;;;;;5054285;28;20052;-61
2022/09/19 03:14:55;;;;;;;22.05;14.52;;;;;;;;;;5054182;28;20450;-59
2022/09/19 03:17:24;;;;;;;22.65;15.80;;;;;;;;;;5053165;28;20523;-60
2022/09/19 03:19:50;;;;;;;23.38;14.90;;;;;;;;;;5055194;28;20103;-60
2022/09/19 03:22:16;;;;;;;24.25;15.30;;;;;;;;;;5055009;28;20512;-60
2022/09/19 03:24:42;;;;;;;27.67;14.50;;;;;;;;;;5055108;28;20021;-56
2022/09/19 03:27:08;;;;;;;27.60;14.38;;;;;;;;;;5054556;28;20418;-61
2022/09/19 03:29:35;;;;;;;23.30;14.50;;;;;;;;;;5054989;28;20413;-61
2022/09/19 03:32:01;;;;;;;24.83;15.20;;;;;;;;;;5053711;28;20473;-61
2022/09/19 03:34:28;;;;;;;27.77;15.95;;;;;;;;;;5054700;28;20582;-62
2022/09/19 03:36:54;;;;;;;22.15;14.43;;;;;;;;;;5053202;28;20033;-61
2022/09/19 03:39:20;;;;;;;25.30;14.82;;;;;;;;;;5053980;28;20032;-62
2022/09/19 03:41:46;;;;;;;31.33;16.25;;;;;;;;;;5054428;28;20104;-61
2022/09/19 03:44:12;;;;;;;29.38;15.77;;;;;;;;;;5054912;28;20021;-61
2022/09/19 03:46:38;;;;;;;25.98;14.80;;;;;;;;;;5053518;28;20025;-61
2022/09/19 03:49:04;;;;;;;26.35;14.68;;;;;;;;;;5054058;28;20036;-62
2022/09/19 03:51:31;;;;;;;28.27;14.57;;;;;;;;;;5054495;28;20025;-61
2022/09/19 03:53:57;;;;;;;23.60;15.95;;;;;;;;;;5053885;28;20389;-61
2022/09/19 03:56:23;;;;;;;25.00;14.10;;;;;;;;;;5054606;28;20025;-60
2022/09/19 03:58:49;;;;;;;38.42;15.60;;;;;;;;;;5053600;28;20052;-61
2022/09/19 04:01:16;;;;;;;22.52;14.00;;;;;;;;;;5054294;28;20036;-61
2022/09/19 04:03:42;;;;;;;22.75;13.88;;;;;;;;;;5054514;28;20477;-64
2022/09/19 04:06:09;;;;;;;20.13;14.07;;;;;;;;;;5054164;28;20544;-62
2022/09/19 04:08:35;;;;;;;25.52;15.43;;;;;;;;;;5052692;28;20522;-60
2022/09/19 04:11:01;;;;;;;26.00;15.98;;;;;;;;;;5054068;28;20022;-61
2022/09/19 04:13:28;;;;;;;21.95;14.60;;;;;;;;;;5054163;28;20028;-61
2022/09/19 04:15:54;;;;;;;22.30;14.77;;;;;;;;;;5054012;28;20024;-61
2022/09/19 04:18:20;;;;;;;28.15;15.27;;;;;;;;;;5052041;28;20063;-61
2022/09/19 04:20:46;;;;;;;26.25;14.88;;;;;;;;;;5053234;28;20067;-60
2022/09/19 04:23:16;;;;;;;31.40;16.65;;;;;;;;;;5053774;28;20413;-61
2022/09/19 04:25:42;;;;;;;23.15;14.85;;;;;;;;;;5053814;28;20150;-60
2022/09/19 04:28:09;;;;;;;23.98;14.75;;;;;;;;;;5053199;28;20056;-61
2022/09/19 04:30:35;;;;;;;26.75;15.93;;;;;;;;;;5053619;28;20021;-60
2022/09/19 04:33:03;;;;;;;24.58;13.90;;;;;;;;;;5053553;28;20389;-61
2022/09/19 04:35:36;;;;;;;23.40;14.40;;;;;;;;;;5052150;28;20436;-61
2022/09/19 04:38:03;;;;;;;26.35;13.93;;;;;;;;;;5051461;28;20021;-61
2022/09/19 04:40:29;;;;;;;24.92;13.93;;;;;;;;;;5053555;28;20492;-61
2022/09/19 04:42:55;;;;;;;21.77;13.55;;;;;;;;;;5053748;28;20025;-61
2022/09/19 04:45:22;;;;;;;26.70;14.45;;;;;;;;;;5053408;28;20080;-60
2022/09/19 04:47:48;;;;;;;24.75;14.30;;;;;;;;;;5052219;28;20033;-60
2022/09/19 04:50:15;;;;;;;32.15;16.60;;;;;;;;;;5053244;28;20397;-60
2022/09/19 04:52:41;;;;;;;24.70;13.43;;;;;;;;;;5051628;28;20100;-60
2022/09/19 04:55:08;;;;;;;21.23;12.80;;;;;;;;;;5051722;28;20409;-60
2022/09/19 04:57:34;;;;;;;22.60;13.82;;;;;;;;;;5052416;28;20047;-61
2022/09/19 05:00:00;;;;;;;25.35;13.85;;;;;;;;;;5053133;28;20025;-62
2022/09/19 05:02:31;;;;;;;26.33;14.02;;;;;;;;;;5052915;28;20405;-61
2022/09/19 05:04:57;;;;;;;29.98;15.13;;;;;;;;;;5053133;28;20100;-62
2022/09/19 05:07:33;;;;;;;23.02;14.20;;;;;;;;;;5052405;28;20483;-60
2022/09/19 05:10:03;;;;;;;29.75;14.88;;;;;;;;;;5052220;28;20112;-61
2022/09/19 05:12:29;;;;;;;22.83;14.43;;;;;;;;;;5053252;28;20021;-61
2022/09/19 05:14:55;;;;;;;23.70;14.13;;;;;;;;;;5053084;28;20385;-60
2022/09/19 05:17:23;;;;;;;32.40;14.68;;;;;;;;;;5051874;28;20036;-63
2022/09/19 05:19:49;;;;;;;23.27;14.48;;;;;;;;;;5052851;28;20021;-62
2022/09/19 05:22:15;;;;;;;26.30;14.38;;;;;;;;;;5053388;28;20035;-60
2022/09/19 05:24:41;;;;;;;25.08;14.07;;;;;;;;;;5053374;28;20033;-61
2022/09/19 05:27:07;;;;;;;32.63;15.93;;;;;;;;;;5052393;28;20554;-58
2022/09/19 05:29:39;;;;;;;26.02;14.02;;;;;;;;;;5052634;28;20029;-62
2022/09/19 05:32:05;;;;;;;29.55;14.35;;;;;;;;;;5053204;28;20037;-63
2022/09/19 05:34:31;;;;;;;27.20;14.00;;;;;;;;;;5052866;28;20051;-62
2022/09/19 05:36:57;;;;;;;23.90;13.70;;;;;;;;;;5053982;28;20029;-61
2022/09/19 05:39:23;;;;;;;25.50;13.82;;;;;;;;;;5052294;28;20100;-62
2022/09/19 05:41:49;;;;;;;22.83;13.23;;;;;;;;;;5052752;28;20080;-62
2022/09/19 05:44:16;;;;;;;27.65;14.40;;;;;;;;;;5052527;28;20032;-61
2022/09/19 05:46:42;;;;;;;21.92;11.45;;;;;;;;;;5052357;28;20028;-61
2022/09/19 05:49:08;;;;;;;23.05;11.57;;;;;;;;;;5051849;28;20025;-61
2022/09/19 05:51:34;;;;;;;21.90;10.52;;;;;;;;;;5052478;28;20024;-58
2022/09/19 05:54:00;;;;;;;23.67;11.38;;;;;;;;;;5051181;28;20129;-61
2022/09/19 05:56:26;;;;;;;20.65;10.95;;;;;;;;;;5052262;28;20031;-63
2022/09/19 05:58:53;;;;;;;19.17;10.68;;;;;;;;;;5051595;28;20041;-59
2022/09/19 06:01:19;;;;;;;26.23;10.88;;;;;;;;;;5052536;28;20025;-63
2022/09/19 06:03:45;;;;;;;20.83;12.15;;;;;;;;;;5051226;28;20032;-61
2022/09/19 06:06:18;;;;;;;25.10;10.75;;;;;;;;;;5052245;28;20025;-61
2022/09/19 06:08:45;;;;;;;20.35;8.93;;;;;;;;;;5051309;28;20497;-61
2022/09/19 06:11:11;;;;;;;20.55;9.52;;;;;;;;;;5052171;28;20029;-62
2022/09/19 06:16:41;;;;;;;22.73;8.73;;;;;;;;;;5030265;28;20074;-62
2022/09/19 06:19:07;;;;;;;22.08;8.75;;;;;;;;;;5042297;28;20065;-62
2022/09/19 06:21:33;;;;;;;21.17;8.73;;;;;;;;;;5052141;28;20017;-62
2022/09/19 06:23:59;;;;;;;20.17;8.30;;;;;;;;;;5051631;28;20021;-60
2022/09/19 06:26:26;;;;;;;22.35;8.20;;;;;;;;;;5052231;28;20389;-60
2022/09/19 06:28:52;;;;;;;20.75;7.97;;;;;;;;;;5051730;28;20021;-61
2022/09/19 06:31:18;;;;;;;21.25;8.20;;;;;;;;;;5053801;28;20089;-61
2022/09/19 06:33:44;;;;;;;24.33;8.20;;;;;;;;;;5055952;28;20108;-61
2022/09/19 06:36:11;;;;;;;29.90;8.85;;;;;;;;;;5056142;28;20029;-61
2022/09/19 06:38:39;;;;;;;28.73;8.82;;;;;;;;;;5055326;28;20381;-59
2022/09/19 06:41:07;;;;;;;24.30;8.35;;;;;;;;;;5055707;28;20021;-61
2022/09/19 06:43:33;;;;;;;18.73;8.40;;;;;;;;;;5056152;28;20032;-62
2022/09/19 06:45:59;;;;;;;21.77;8.45;;;;;;;;;;5056048;28;20036;-61
2022/09/19 06:48:25;;;;;;;23.35;8.77;;;;;;;;;;5055384;28;20052;-59
2022/09/19 06:50:52;;;;;;;21.35;7.80;;;;;;;;;;5055716;28;20044;-61
2022/09/19 06:53:18;;;;;;;23.88;9.73;;;;;;;;;;5054373;28;20060;-59
2022/09/19 06:55:45;;;;;;;21.88;8.32;;;;;;;;;;5055739;28;20021;-61
2022/09/19 06:58:11;;;;;;;23.08;8.45;;;;;;;;;;5055058;28;20029;-61
2022/09/19 07:00:38;;;;;;;25.05;8.95;;;;;;;;;;5062693;28;20036;-61
2022/09/19 07:03:07;;;;;;;22.02;7.90;;;;;;;;;;5061217;28;20517;-60
2022/09/19 07:05:34;;;;;;;23.25;7.80;;;;;;;;;;5056498;28;20389;-60
2022/09/19 07:08:00;;;;;;;18.20;7.63;;;;;;;;;;5052164;28;20071;-63
2022/09/19 07:10:26;;;;;;;23.73;10.13;;;;;;;;;;5054682;28;20021;-62
2022/09/19 07:13:01;;;;;;;25.25;10.60;;;;;;;;;;5055536;28;20021;-62
2022/09/19 07:15:36;;;;;;;25.10;11.35;;;;;;;;;;5055697;28;20504;-62
2022/09/19 07:18:03;;;;;;;22.52;10.98;;;;;;;;;;5054739;28;20508;-62
2022/09/19 07:20:29;;;;;;;23.20;9.95;;;;;;;;;;5055610;28;20027;-63
2022/09/19 07:23:05;;;;;;;26.05;11.07;;;;;;;;;;5055609;28;20519;-62
2022/09/19 07:25:32;;;;;;;19.92;10.77;;;;;;;;;;5055109;28;20032;-63
2022/09/19 07:28:03;;;;;;;24.42;11.00;;;;;;;;;;5054571;28;20029;-63
2022/09/19 07:30:30;;;;;;;22.35;11.23;;;;;;;;;;5055252;28;20098;-67
2022/09/19 07:32:57;;;;;;;24.33;11.68;;;;;;;;;;5055419;28;20029;-69
2022/09/19 07:35:24;;;;;;;20.33;10.60;;;;;;;;;;5054837;28;20630;-68
2022/09/19 07:37:50;;;;;;;22.23;10.52;;;;;;;;;;5053986;28;20521;-62
2022/09/19 07:40:16;;;;;;;23.13;11.98;;;;;;;;;;5054594;28;20462;-61
2022/09/19 07:42:42;;;;;;;21.80;10.80;;;;;;;;;;5053846;28;20389;-64
2022/09/19 07:45:09;;;;;;;28.73;10.60;;;;;;;;;;5054859;28;20025;-66
2022/09/19 07:47:35;;;;;;;23.25;10.85;;;;;;;;;;5053992;28;20079;-64
2022/09/19 07:50:01;;;;;;;20.50;10.60;;;;;;;;;;5054594;28;20052;-65
2022/09/19 07:52:27;;;;;;;26.95;9.60;;;;;;;;;;5054405;28;20033;-65
2022/09/19 07:54:53;;;;;;;22.90;9.27;;;;;;;;;;5054211;28;20028;-65
2022/09/19 07:57:19;;;;;;;23.88;10.00;;;;;;;;;;5053412;28;20044;-62
2022/09/19 07:59:46;;;;;;;23.40;11.05;;;;;;;;;;5054242;28;20473;-65
2022/09/19 08:02:12;;;;;;;28.92;10.85;;;;;;;;;;5053861;28;20017;-65
2022/09/19 08:04:39;;;;;;;20.58;10.43;;;;;;;;;;5054288;28;20110;-64
2022/09/19 08:07:05;;;;;;;21.98;10.25;;;;;;;;;;5053951;28;20028;-65
2022/09/19 08:09:31;;;;;;;20.98;11.43;;;;;;;;;;5053211;28;20103;-65
2022/09/19 08:11:57;;;;;;;23.20;10.15;;;;;;;;;;5054588;28;20098;-66
2022/09/19 08:14:23;;;;;;;22.70;10.98;;;;;;;;;;5054358;28;20044;-66
2022/09/19 08:16:53;;;;;;;23.42;10.50;;;;;;;;;;5053998;28;20059;-66
2022/09/19 08:19:19;;;;;;;21.33;9.95;;;;;;;;;;5052094;28;20021;-68
2022/09/19 08:21:45;;;;;;;18.38;9.95;;;;;;;;;;5054017;28;20363;-68
2022/09/19 08:24:11;;;;;;;22.80;10.25;;;;;;;;;;5051396;28;20028;-68
2022/09/19 08:26:37;;;;;;;21.10;11.25;;;;;;;;;;5052087;28;20029;-69
2022/09/19 08:29:03;;;;;;;20.48;10.75;;;;;;;;;;5053075;28;20440;-68
2022/09/19 08:31:30;;;;;;;24.20;10.50;;;;;;;;;;5052402;28;20444;-69
2022/09/19 08:33:56;;;;;;;19.88;9.80;;;;;;;;;;5051763;28;20017;-67
2022/09/19 08:36:22;;;;;;;19.65;10.23;;;;;;;;;;5053538;28;20116;-68
2022/09/19 08:38:48;;;;;;;18.83;10.02;;;;;;;;;;5051720;28;20024;-69
2022/09/19 08:41:34;;;;;;;23.08;11.00;;;;;;;;;;5053634;28;20331;-68
2022/09/19 08:44:04;;;;;;;22.45;10.00;;;;;;;;;;5053585;28;20430;-68
2022/09/19 08:46:30;;;;;;;21.38;10.07;;;;;;;;;;5056218;28;20029;-69
2022/09/19 08:49:03;;;;;;;18.05;8.93;;;;;;;;;;5060006;28;20517;-69
2022/09/19 08:51:47;;;;;;;19.30;10.38;;;;;;;;;;5055406;28;20033;-69
2022/09/19 08:54:16;;;;;;;22.05;10.18;;;;;;;;;;5053545;28;20115;-69
2022/09/19 08:56:43;;;;;;;25.38;10.70;;;;;;;;;;5053214;28;20021;-69
2022/09/19 08:59:30;;;;;;;23.85;10.48;;;;;;;;;;5052634;28;20021;-68
2022/09/19 09:01:59;;;;;;;23.48;10.27;;;;;;;;;;5051590;28;20126;-69
2022/09/19 09:04:30;;;;;;;22.25;10.82;;;;;;;;;;5053164;28;20031;-69
2022/09/19 09:07:08;;;;;;;20.67;11.20;;;;;;;;;;5053002;28;20031;-68
2022/09/19 09:09:37;;;;;;;23.85;10.52;;;;;;;;;;5052593;28;20017;-68
2022/09/19 09:12:07;;;;;;;20.45;11.13;;;;;;;;;;5051587;28;20025;-68
2022/09/19 09:14:47;;;;;;;20.88;10.43;;;;;;;;;;5052343;28;20098;-68
2022/09/19 09:17:31;;;;;;;19.77;10.65;;;;;;;;;;5051764;28;20045;-68
2022/09/19 09:20:16;;;;;;;19.02;10.43;;;;;;;;;;5051630;28;20017;-69
2022/09/19 09:22:51;;;;;;;23.17;10.63;;;;;;;;;;5052756;28;20017;-69
2022/09/19 09:25:21;;;;;;;20.70;10.80;;;;;;;;;;5052848;28;20032;-68
2022/09/19 09:27:56;;;;;;;21.38;11.73;;;;;;;;;;5051940;28;20021;-69
2022/09/19 09:30:23;;;;;;;23.77;11.02;;;;;;;;;;5052701;28;20025;-68
2022/09/19 09:32:56;;;;;;;20.95;9.88;;;;;;;;;;5052569;28;20036;-68
2022/09/19 09:35:34;;;;;;;21.98;11.10;;;;;;;;;;5050944;28;20032;-67
2022/09/19 09:38:04;;;;;;;19.63;10.60;;;;;;;;;;5051955;28;20052;-68
2022/09/19 09:43:26;;;;;;;21.38;11.18;;;;;;;;;;5052655;28;20059;-68
2022/09/19 09:45:52;;;;;;;17.92;10.40;;;;;;;;;;5051344;28;20500;-68
2022/09/19 09:48:35;;;;;;;20.25;10.70;;;;;;;;;;5051968;28;20029;-67
2022/09/19 09:51:19;;;;;;;21.17;10.80;;;;;;;;;;5052864;28;20095;-68
2022/09/19 09:53:54;;;;;;;20.45;11.07;;;;;;;;;;5051984;28;20025;-69
2022/09/19 09:56:37;;;;;;;19.02;11.10;;;;;;;;;;5052208;28;20021;-68
2022/09/19 10:03:33;;;;;;;20.42;11.27;;;;;;;;;;5051371;28;20025;-68
2022/09/19 10:05:05;;;;;;;17.67;9.90;;;;;;;;;;5061743;28;20043;-68
2022/09/19 10:07:37;;;;;;;17.65;10.93;;;;;;;;;;5054976;28;20021;-67
2022/09/19 10:10:08;;;;;;;19.73;10.50;;;;;;;;;;5052157;28;20103;-70
2022/09/19 10:12:40;;;;;;;28.92;11.57;;;;;;;;;;5051060;28;20021;-68
2022/09/19 10:15:10;;;;;;;23.65;11.40;;;;;;;;;;5051985;28;20434;-69
2022/09/19 10:17:39;;;;;;;21.70;10.77;;;;;;;;;;5051424;28;20029;-67
2022/09/19 10:20:12;;;;;;;18.13;11.00;;;;;;;;;;5051837;28;20119;-67
2022/09/19 10:22:38;;;;;;;18.48;10.10;;;;;;;;;;5051888;28;20040;-68
2022/09/19 10:25:12;;;;;;;19.35;10.75;;;;;;;;;;5051991;28;20405;-68
2022/09/19 10:27:41;;;;;;;19.50;11.30;;;;;;;;;;5050907;28;20037;-67
2022/09/19 10:30:18;;;;;;;17.75;10.38;;;;;;;;;;5051669;28;20025;-67
2022/09/19 10:32:45;;;;;;;19.73;11.27;;;;;;;;;;5052102;28;20045;-68
2022/09/19 10:35:26;;;;;;;21.30;10.52;;;;;;;;;;5050018;28;20511;-68
2022/09/19 10:37:53;;;;;;;19.90;10.98;;;;;;;;;;5049799;28;20025;-66
2022/09/19 10:40:19;;;;;;;21.02;11.45;;;;;;;;;;5051565;28;20025;-68
2022/09/19 10:42:47;;;;;;;19.23;11.55;;;;;;;;;;5051914;28;20082;-67
2022/09/19 10:45:24;;;;;;;18.85;12.10;;;;;;;;;;5051802;28;20462;-67
2022/09/19 10:47:51;;;;;;;19.75;11.40;;;;;;;;;;5051140;28;20033;-68
2022/09/19 10:50:18;;;;;;;18.45;11.35;;;;;;;;;;5051809;28;20037;-67
2022/09/19 10:52:46;;;;;;;18.65;11.20;;;;;;;;;;5051198;28;20108;-67
2022/09/19 10:55:14;;;;;;;17.95;11.00;;;;;;;;;;5050231;28;20079;-66
2022/09/19 10:57:44;;;;;;;21.70;12.00;;;;;;;;;;5051174;28;20163;-68
2022/09/19 11:00:30;;;;;;;20.10;11.35;;;;;;;;;;5050627;28;20369;-68
2022/09/19 11:03:01;;;;;;;19.23;12.18;;;;;;;;;;5051691;28;20017;-68
2022/09/19 11:05:29;;;;;;;19.83;13.30;;;;;;;;;;5051461;28;20178;-68
2022/09/19 11:07:56;;;;;;;17.02;11.55;;;;;;;;;;5050900;28;20022;-68
2022/09/19 11:10:37;;;;;;;22.25;12.45;;;;;;;;;;5051399;28;20488;-67
2022/09/19 11:13:13;;;;;;;17.98;11.43;;;;;;;;;;5051687;28;20024;-68
2022/09/19 11:15:49;;;;;;;24.98;12.23;;;;;;;;;;5051639;28;20086;-68
2022/09/19 11:18:22;;;;;;;17.88;10.73;;;;;;;;;;5051982;28;20104;-68
2022/09/19 11:21:07;;;;;;;19.05;11.38;;;;;;;;;;5055098;28;20029;-67
2022/09/19 11:23:45;;;;;;;20.02;11.77;;;;;;;;;;5055134;28;20025;-67
2022/09/19 11:26:11;;;;;;;25.38;12.77;;;;;;;;;;5054667;28;20021;-68
2022/09/19 11:28:37;;;;;;;19.98;12.30;;;;;;;;;;5054325;28;20028;-68
2022/09/19 11:31:05;;;;;;;18.35;13.00;;;;;;;;;;5054791;28;20115;-67
2022/09/19 11:33:53;;;;;;;18.70;12.25;;;;;;;;;;5053000;28;20036;-68
2022/09/19 11:36:19;;;;;;;16.17;12.02;;;;;;;;;;5054833;28;20044;-65
2022/09/19 11:38:54;;;;;;;18.02;10.05;;;;;;;;;;5054379;28;20029;-68
2022/09/19 11:41:40;;;;;;;17.80;10.63;;;;;;;;;;5055272;28;20111;-67
2022/09/19 11:44:20;;;;;;;17.95;9.95;;;;;;;;;;5047924;28;20118;-65
2022/09/19 11:46:54;;;;;;;21.23;11.55;;;;;;;;;;5054725;28;20032;-67
2022/09/19 11:49:26;;;;;;;19.05;10.98;;;;;;;;;;5054642;28;20079;-68
2022/09/19 11:52:02;;;;;;;15.82;10.10;;;;;;;;;;5058311;28;20025;-68
2022/09/19 11:54:47;;;;;;;18.63;10.00;;;;;;;;;;5056054;28;20025;-67
2022/09/19 11:57:13;;;;;;;17.45;9.52;;;;;;;;;;5053361;28;20078;-68
2022/09/19 11:59:47;;;;;;;18.13;10.20;;;;;;;;;;5058162;28;20032;-68
2022/09/19 12:02:34;;;;;;;17.63;10.02;;;;;;;;;;5058599;28;20093;-68
2022/09/19 12:05:01;;;;;;;18.60;11.23;;;;;;;;;;5057937;28;20451;-68
2022/09/19 12:07:57;;;;;;;17.67;10.25;;;;;;;;;;5055969;28;20429;-68
2022/09/19 12:10:40;;;;;;;15.90;10.30;;;;;;;;;;5000428;28;20045;-68
2022/09/19 12:13:09;;;;;;;18.50;10.80;;;;;;;;;;5054307;28;20025;-67
2022/09/19 12:15:37;;;;;;;17.85;10.40;;;;;;;;;;5052637;28;20128;-66
2022/09/19 12:18:03;;;;;;;15.87;10.00;;;;;;;;;;5053121;28;20112;-67
2022/09/19 12:20:33;;;;;;;18.63;10.07;;;;;;;;;;5054619;28;20047;-66
2022/09/19 12:26:04;;;;;;;17.05;10.25;;;;;;;;;;5053842;28;20032;-67
2022/09/19 12:28:32;;;;;;;19.92;10.95;;;;;;;;;;5053117;28;20524;-67
2022/09/19 12:31:00;;;;;;;19.50;11.23;;;;;;;;;;5053508;28;20022;-67
2022/09/19 12:33:35;;;;;;;16.20;10.18;;;;;;;;;;5051589;28;20089;-68
2022/09/19 12:36:20;;;;;;;18.33;9.98;;;;;;;;;;5053317;28;20116;-67
2022/09/19 12:38:50;;;;;;;16.20;10.50;;;;;;;;;;5054252;28;20029;-66
2022/09/19 12:41:21;;;;;;;15.98;10.20;;;;;;;;;;5073310;28;20013;-66
2022/09/19 12:43:51;;;;;;;20.02;17.80;;;;;;;;;;5073647;28;20477;-64
2022/09/19 12:46:19;;;;;;;19.90;16.98;;;;;;;;;;5072149;28;20024;-67
2022/09/19 12:48:47;;;;;;;;;;;;;;;;;;5073769;28;20029;-66
2022/09/19 12:51:14;;;;;;;18.80;15.95;;;;;;;;;;5073763;28;19904;-66
2022/09/19 12:53:43;;;;;;;19.92;14.90;;;;;;;;;;5074118;28;20032;-66
2022/09/19 12:56:15;;;;;;;19.35;15.18;;;;;;;;;;5071548;28;20032;-67
2022/09/19 12:59:00;;;;;;;21.25;14.75;;;;;;;;;;5073543;28;20362;-68
2022/09/19 13:01:32;;;;;;;19.90;15.57;;;;;;;;;;5075576;28;20017;-67
2022/09/19 13:04:21;;;;;;;19.25;17.08;;;;;;;;;;5074048;28;20450;-70
2022/09/19 13:06:48;;;;;;;19.95;17.85;;;;;;;;;;5074633;28;20055;-69
2022/09/19 13:09:35;;;;;;;20.50;18.30;;;;;;;;;;5066924;28;20036;-68
2022/09/19 13:12:20;;;;;;;19.42;17.42;;;;;;;;;;5054152;28;20064;-71
2022/09/19 13:14:46;;;;;;;20.35;18.25;;;;;;;;;;5054100;28;20029;-69
2022/09/19 13:25:35;;;;;;;18.38;14.20;;;;;;;;;;5053334;28;20063;-65
2022/09/19 13:28:32;;;;;;;18.40;13.70;;;;;;;;;;5052188;28;20380;-69
2022/09/19 13:31:09;;;;;;;15.80;12.77;;;;;;;;;;5052886;28;20037;-68
2022/09/19 13:33:38;;;;;;;17.63;12.68;;;;;;;;;;5053463;28;20032;-68
2022/09/19 13:36:09;;;;;;;16.25;12.70;;;;;;;;;;5052822;28;20033;-65
2022/09/19 13:38:38;;;;;;;17.70;12.52;;;;;;;;;;5052981;28;20017;-67
2022/09/19 13:41:08;;;;;;;17.25;12.80;;;;;;;;;;5054608;28;20029;-66
2022/09/19 13:43:56;;;;;;;17.20;12.43;;;;;;;;;;5056718;28;20017;-69
2022/09/19 13:46:22;;;;;;;;;;;;;;;;;;5055495;28;20482;-66
2022/09/19 13:48:58;;;;;;;15.77;12.30;;;;;;;;;;5055907;28;19928;-69
2022/09/19 13:51:44;;;;;;;17.98;13.30;;;;;;;;;;5054761;28;20025;-67
2022/09/19 13:54:16;;;;;;;15.57;12.30;;;;;;;;;;5052480;28;20510;-68
2022/09/19 13:56:42;;;;;;;18.13;12.27;;;;;;;;;;5051358;28;20477;-68
2022/09/19 13:59:31;;;;;;;17.35;12.18;;;;;;;;;;5050820;28;20036;-68
2022/09/19 14:01:59;;;;;;;16.33;12.30;;;;;;;;;;5052129;28;20025;-67
2022/09/19 14:07:19;;;;;;;16.55;11.10;;;;;;;;;;5051694;28;20040;-68
2022/09/19 14:09:46;;;;;;;15.23;10.60;;;;;;;;;;5052387;28;20041;-68
2022/09/19 14:12:31;;;;;;;14.73;10.18;;;;;;;;;;5052246;28;20028;-67
2022/09/19 14:14:57;;;;;;;18.38;9.82;;;;;;;;;;5050504;28;20025;-68
2022/09/19 14:17:23;;;;;;;16.40;9.43;;;;;;;;;;5050275;28;20052;-68
2022/09/19 14:19:50;;;;;;;17.20;9.45;;;;;;;;;;5052028;28;20017;-67
2022/09/19 14:22:28;;;;;;;16.92;9.35;;;;;;;;;;5050550;28;20021;-66
2022/09/19 14:24:59;;;;;;;17.38;10.52;;;;;;;;;;5051974;28;20029;-67
2022/09/19 14:27:42;;;;;;;20.60;13.18;;;;;;;;;;5051202;28;20029;-63
2022/09/19 14:30:18;;;;;;;22.38;14.40;;;;;;;;;;5052266;28;20081;-63
2022/09/19 14:32:56;;;;;;;19.08;14.32;;;;;;;;;;5052232;28;20025;-58
2022/09/19 14:35:22;;;;;;;20.73;14.40;;;;;;;;;;5050358;28;20045;-61
2022/09/19 14:37:55;;;;;;;19.83;13.23;;;;;;;;;;5051420;28;20519;-61
2022/09/19 14:40:22;;;;;;;18.55;13.07;;;;;;;;;;5052298;28;20075;-63
2022/09/19 14:43:09;;;;;;;18.63;12.50;;;;;;;;;;5051003;28;20021;-62
2022/09/19 14:45:41;;;;;;;20.08;12.80;;;;;;;;;;5052436;28;20021;-62
2022/09/19 14:48:16;;;;;;;19.70;12.38;;;;;;;;;;5051845;28;20039;-59
2022/09/19 14:50:49;;;;;;;17.00;12.80;;;;;;;;;;5052479;28;20033;-60
2022/09/19 14:53:25;;;;;;;17.17;12.65;;;;;;;;;;5075013;28;20078;-63
2022/09/19 14:55:52;;;;;;;19.10;12.63;;;;;;;;;;5075798;28;20434;-63
2022/09/19 14:58:22;;;;;;;15.97;11.90;;;;;;;;;;4707202;28;9999985;-63
2022/09/19 15:00:55;;;;;;;17.67;12.40;;;;;;;;;;5051651;28;20025;-64
2022/09/19 15:03:21;;;;;;;18.02;12.23;;;;;;;;;;5052124;28;20277;-67
2022/09/19 15:05:49;;;;;;;17.23;12.00;;;;;;;;;;5049982;28;20029;-63